sensor_id;sensor_type;location;lat;lon;timestamp;P1;durP1;ratioP1;P2;durP2;ratioP2
53915;SDS011;39827;49.652;18.770;2023-06-26T00:01:27;845.63;;;777.75;;
53915;SDS011;39827;49.652;18.770;2023-06-26T00:03:56;848.17;;;780.70;;
53915;SDS011;39827;49.652;18.770;2023-06-26T00:06:22;844.45;;;778.53;;
53915;SDS011;39827;49.652;18.770;2023-06-26T00:08:50;856.50;;;788.00;;
53915;SDS011;39827;49.652;18.770;2023-06-26T00:11:15;839.15;;;772.50;;
53915;SDS011;39827;49.652;18.770;2023-06-26T00:13:41;809.75;;;744.38;;
53915;SDS011;39827;49.652;18.770;2023-06-26T00:16:07;816.65;;;750.92;;
53915;SDS011;39827;49.652;18.770;2023-06-26T00:18:32;828.95;;;761.78;;
53915;SDS011;39827;49.652;18.770;2023-06-26T00:20:58;812.40;;;747.42;;
53915;SDS011;39827;49.652;18.770;2023-06-26T00:23:23;859.85;;;789.80;;
53915;SDS011;39827;49.652;18.770;2023-06-26T00:25:48;835.60;;;767.50;;
53915;SDS011;39827;49.652;18.770;2023-06-26T00:28:14;872.28;;;801.30;;
53915;SDS011;39827;49.652;18.770;2023-06-26T00:30:39;913.22;;;837.95;;
53915;SDS011;39827;49.652;18.770;2023-06-26T00:33:05;887.45;;;814.78;;
53915;SDS011;39827;49.652;18.770;2023-06-26T00:35:30;861.72;;;791.15;;
53915;SDS011;39827;49.652;18.770;2023-06-26T00:37:55;874.17;;;803.28;;
53915;SDS011;39827;49.652;18.770;2023-06-26T00:40:21;876.47;;;804.53;;
53915;SDS011;39827;49.652;18.770;2023-06-26T00:42:46;892.40;;;819.65;;
53915;SDS011;39827;49.652;18.770;2023-06-26T00:45:12;856.00;;;785.17;;
53915;SDS011;39827;49.652;18.770;2023-06-26T00:47:37;865.83;;;794.95;;
53915;SDS011;39827;49.652;18.770;2023-06-26T00:50:04;877.45;;;805.47;;
53915;SDS011;39827;49.652;18.770;2023-06-26T00:52:30;859.95;;;789.30;;
53915;SDS011;39827;49.652;18.770;2023-06-26T00:54:56;894.85;;;822.25;;
53915;SDS011;39827;49.652;18.770;2023-06-26T00:57:22;845.83;;;775.78;;
53915;SDS011;39827;49.652;18.770;2023-06-26T00:59:48;868.50;;;796.92;;
53915;SDS011;39827;49.652;18.770;2023-06-26T01:02:14;847.90;;;777.17;;
53915;SDS011;39827;49.652;18.770;2023-06-26T01:04:42;841.72;;;771.92;;
53915;SDS011;39827;49.652;18.770;2023-06-26T01:07:11;864.55;;;793.20;;
53915;SDS011;39827;49.652;18.770;2023-06-26T01:09:38;894.30;;;822.25;;
53915;SDS011;39827;49.652;18.770;2023-06-26T01:12:04;879.97;;;809.13;;
53915;SDS011;39827;49.652;18.770;2023-06-26T01:14:29;846.35;;;776.72;;
53915;SDS011;39827;49.652;18.770;2023-06-26T01:16:55;854.55;;;783.92;;
53915;SDS011;39827;49.652;18.770;2023-06-26T01:19:26;833.83;;;764.80;;
53915;SDS011;39827;49.652;18.770;2023-06-26T01:22:02;885.00;;;814.20;;
53915;SDS011;39827;49.652;18.770;2023-06-26T01:24:42;960.65;;;883.42;;
53915;SDS011;39827;49.652;18.770;2023-06-26T01:27:26;868.75;;;797.33;;
53915;SDS011;39827;49.652;18.770;2023-06-26T01:29:53;884.08;;;811.17;;
53915;SDS011;39827;49.652;18.770;2023-06-26T01:32:20;939.00;;;864.50;;
53915;SDS011;39827;49.652;18.770;2023-06-26T01:34:46;871.05;;;800.50;;
53915;SDS011;39827;49.652;18.770;2023-06-26T01:37:12;952.38;;;875.35;;
53915;SDS011;39827;49.652;18.770;2023-06-26T01:39:37;858.63;;;788.58;;
53915;SDS011;39827;49.652;18.770;2023-06-26T01:42:02;940.58;;;864.65;;
53915;SDS011;39827;49.652;18.770;2023-06-26T01:44:28;851.38;;;782.22;;
53915;SDS011;39827;49.652;18.770;2023-06-26T01:47:02;852.20;;;782.58;;
53915;SDS011;39827;49.652;18.770;2023-06-26T01:52:25;944.60;;;867.55;;
53915;SDS011;39827;49.652;18.770;2023-06-26T01:55:00;847.78;;;780.17;;
53915;SDS011;39827;49.652;18.770;2023-06-26T01:57:30;868.88;;;800.47;;
53915;SDS011;39827;49.652;18.770;2023-06-26T01:59:56;877.05;;;805.30;;
53915;SDS011;39827;49.652;18.770;2023-06-26T02:02:24;865.28;;;795.25;;
53915;SDS011;39827;49.652;18.770;2023-06-26T02:04:49;873.83;;;801.80;;
53915;SDS011;39827;49.652;18.770;2023-06-26T02:07:15;854.75;;;784.95;;
53915;SDS011;39827;49.652;18.770;2023-06-26T02:09:41;834.08;;;765.13;;
53915;SDS011;39827;49.652;18.770;2023-06-26T02:12:06;862.25;;;791.80;;
53915;SDS011;39827;49.652;18.770;2023-06-26T02:14:32;846.30;;;775.95;;
53915;SDS011;39827;49.652;18.770;2023-06-26T02:16:58;859.13;;;788.38;;
53915;SDS011;39827;49.652;18.770;2023-06-26T02:19:25;870.63;;;800.10;;
53915;SDS011;39827;49.652;18.770;2023-06-26T02:21:52;875.35;;;803.03;;
53915;SDS011;39827;49.652;18.770;2023-06-26T02:24:20;874.63;;;803.25;;
53915;SDS011;39827;49.652;18.770;2023-06-26T02:26:45;867.22;;;795.42;;
53915;SDS011;39827;49.652;18.770;2023-06-26T02:29:11;873.95;;;802.95;;
53915;SDS011;39827;49.652;18.770;2023-06-26T02:31:37;871.92;;;801.95;;
53915;SDS011;39827;49.652;18.770;2023-06-26T02:34:03;872.05;;;801.95;;
53915;SDS011;39827;49.652;18.770;2023-06-26T02:36:29;891.25;;;820.97;;
53915;SDS011;39827;49.652;18.770;2023-06-26T02:38:54;901.08;;;829.78;;
53915;SDS011;39827;49.652;18.770;2023-06-26T02:41:20;853.53;;;783.13;;
53915;SDS011;39827;49.652;18.770;2023-06-26T02:43:45;849.03;;;778.03;;
53915;SDS011;39827;49.652;18.770;2023-06-26T02:46:11;860.10;;;789.10;;
53915;SDS011;39827;49.652;18.770;2023-06-26T02:48:36;874.97;;;803.60;;
53915;SDS011;39827;49.652;18.770;2023-06-26T02:51:01;905.80;;;832.05;;
53915;SDS011;39827;49.652;18.770;2023-06-26T02:53:27;883.88;;;810.80;;
53915;SDS011;39827;49.652;18.770;2023-06-26T02:55:52;888.22;;;814.90;;
53915;SDS011;39827;49.652;18.770;2023-06-26T02:58:18;858.50;;;785.38;;
53915;SDS011;39827;49.652;18.770;2023-06-26T03:00:44;855.58;;;782.75;;
53915;SDS011;39827;49.652;18.770;2023-06-26T03:03:10;875.28;;;800.78;;
53915;SDS011;39827;49.652;18.770;2023-06-26T03:05:35;872.75;;;800.67;;
53915;SDS011;39827;49.652;18.770;2023-06-26T03:08:02;869.20;;;797.28;;
53915;SDS011;39827;49.652;18.770;2023-06-26T03:10:28;864.92;;;794.78;;
53915;SDS011;39827;49.652;18.770;2023-06-26T03:12:53;882.40;;;808.97;;
53915;SDS011;39827;49.652;18.770;2023-06-26T03:15:18;850.17;;;778.50;;
53915;SDS011;39827;49.652;18.770;2023-06-26T03:17:44;871.45;;;798.92;;
53915;SDS011;39827;49.652;18.770;2023-06-26T03:20:10;879.95;;;806.45;;
53915;SDS011;39827;49.652;18.770;2023-06-26T03:22:35;898.92;;;824.17;;
53915;SDS011;39827;49.652;18.770;2023-06-26T03:25:02;881.20;;;806.10;;
53915;SDS011;39827;49.652;18.770;2023-06-26T03:27:28;893.33;;;819.70;;
53915;SDS011;39827;49.652;18.770;2023-06-26T03:29:53;886.83;;;811.95;;
53915;SDS011;39827;49.652;18.770;2023-06-26T03:32:18;876.05;;;801.22;;
53915;SDS011;39827;49.652;18.770;2023-06-26T03:34:44;859.42;;;786.33;;
53915;SDS011;39827;49.652;18.770;2023-06-26T03:37:09;874.80;;;800.65;;
53915;SDS011;39827;49.652;18.770;2023-06-26T03:39:35;877.15;;;805.10;;
53915;SDS011;39827;49.652;18.770;2023-06-26T03:42:00;892.97;;;817.85;;
53915;SDS011;39827;49.652;18.770;2023-06-26T03:44:29;870.75;;;798.00;;
53915;SDS011;39827;49.652;18.770;2023-06-26T03:46:54;847.55;;;777.75;;
53915;SDS011;39827;49.652;18.770;2023-06-26T03:49:20;815.10;;;748.00;;
53915;SDS011;39827;49.652;18.770;2023-06-26T03:51:45;831.47;;;764.50;;
53915;SDS011;39827;49.652;18.770;2023-06-26T03:54:11;830.08;;;764.53;;
53915;SDS011;39827;49.652;18.770;2023-06-26T03:56:36;840.20;;;772.38;;
53915;SDS011;39827;49.652;18.770;2023-06-26T03:59:02;786.33;;;720.88;;
53915;SDS011;39827;49.652;18.770;2023-06-26T04:01:27;788.25;;;723.50;;
53915;SDS011;39827;49.652;18.770;2023-06-26T04:03:53;834.45;;;767.47;;
53915;SDS011;39827;49.652;18.770;2023-06-26T04:06:19;827.50;;;760.30;;
53915;SDS011;39827;49.652;18.770;2023-06-26T04:08:44;846.42;;;778.30;;
53915;SDS011;39827;49.652;18.770;2023-06-26T04:11:09;785.80;;;720.50;;
53915;SDS011;39827;49.652;18.770;2023-06-26T04:13:35;792.17;;;727.70;;
53915;SDS011;39827;49.652;18.770;2023-06-26T04:16:00;823.00;;;755.53;;
53915;SDS011;39827;49.652;18.770;2023-06-26T04:18:26;861.72;;;791.50;;
53915;SDS011;39827;49.652;18.770;2023-06-26T04:23:33;850.00;;;781.42;;
53915;SDS011;39827;49.652;18.770;2023-06-26T04:25:59;863.95;;;794.58;;
53915;SDS011;39827;49.652;18.770;2023-06-26T04:28:25;886.10;;;814.45;;
53915;SDS011;39827;49.652;18.770;2023-06-26T04:30:51;879.47;;;808.13;;
53915;SDS011;39827;49.652;18.770;2023-06-26T04:33:16;876.78;;;805.72;;
53915;SDS011;39827;49.652;18.770;2023-06-26T04:35:41;880.72;;;809.22;;
53915;SDS011;39827;49.652;18.770;2023-06-26T04:38:10;891.58;;;818.67;;
53915;SDS011;39827;49.652;18.770;2023-06-26T04:40:36;915.67;;;840.40;;
53915;SDS011;39827;49.652;18.770;2023-06-26T04:43:01;855.17;;;784.65;;
53915;SDS011;39827;49.652;18.770;2023-06-26T04:45:27;881.05;;;808.97;;
53915;SDS011;39827;49.652;18.770;2023-06-26T04:47:52;884.10;;;809.88;;
53915;SDS011;39827;49.652;18.770;2023-06-26T04:50:17;917.75;;;838.92;;
53915;SDS011;39827;49.652;18.770;2023-06-26T04:52:44;904.60;;;828.88;;
53915;SDS011;39827;49.652;18.770;2023-06-26T04:55:09;930.40;;;851.30;;
53915;SDS011;39827;49.652;18.770;2023-06-26T04:57:35;947.80;;;865.00;;
53915;SDS011;39827;49.652;18.770;2023-06-26T05:00:00;914.50;;;836.05;;
53915;SDS011;39827;49.652;18.770;2023-06-26T05:02:26;941.47;;;858.60;;
53915;SDS011;39827;49.652;18.770;2023-06-26T05:04:52;941.30;;;854.53;;
53915;SDS011;39827;49.652;18.770;2023-06-26T05:07:17;970.45;;;877.78;;
53915;SDS011;39827;49.652;18.770;2023-06-26T05:09:42;989.53;;;894.17;;
53915;SDS011;39827;49.652;18.770;2023-06-26T05:12:08;1027.55;;;925.65;;
53915;SDS011;39827;49.652;18.770;2023-06-26T05:14:33;1050.05;;;946.05;;
53915;SDS011;39827;49.652;18.770;2023-06-26T05:16:59;1035.22;;;935.15;;
53915;SDS011;39827;49.652;18.770;2023-06-26T05:19:24;1076.50;;;973.05;;
53915;SDS011;39827;49.652;18.770;2023-06-26T05:21:50;1060.57;;;959.97;;
53915;SDS011;39827;49.652;18.770;2023-06-26T05:24:16;1057.47;;;958.20;;
53915;SDS011;39827;49.652;18.770;2023-06-26T05:26:42;1079.80;;;977.50;;
53915;SDS011;39827;49.652;18.770;2023-06-26T05:29:07;1058.63;;;960.17;;
53915;SDS011;39827;49.652;18.770;2023-06-26T05:31:33;1052.53;;;953.53;;
53915;SDS011;39827;49.652;18.770;2023-06-26T05:34:05;1038.15;;;939.45;;
53915;SDS011;39827;49.652;18.770;2023-06-26T05:36:32;1055.18;;;954.05;;
53915;SDS011;39827;49.652;18.770;2023-06-26T05:38:59;1062.28;;;962.00;;
53915;SDS011;39827;49.652;18.770;2023-06-26T05:41:25;1050.57;;;952.20;;
53915;SDS011;39827;49.652;18.770;2023-06-26T05:43:50;1026.70;;;931.00;;
53915;SDS011;39827;49.652;18.770;2023-06-26T05:46:16;1016.33;;;921.97;;
53915;SDS011;39827;49.652;18.770;2023-06-26T05:48:41;987.55;;;898.03;;
53915;SDS011;39827;49.652;18.770;2023-06-26T05:51:07;925.70;;;847.22;;
53915;SDS011;39827;49.652;18.770;2023-06-26T05:53:33;886.75;;;815.05;;
53915;SDS011;39827;49.652;18.770;2023-06-26T05:55:59;889.25;;;817.33;;
53915;SDS011;39827;49.652;18.770;2023-06-26T05:58:26;846.72;;;780.83;;
53915;SDS011;39827;49.652;18.770;2023-06-26T06:00:54;850.72;;;783.97;;
53915;SDS011;39827;49.652;18.770;2023-06-26T06:03:20;821.03;;;758.53;;
53915;SDS011;39827;49.652;18.770;2023-06-26T06:05:46;806.80;;;745.75;;
53915;SDS011;39827;49.652;18.770;2023-06-26T06:08:11;805.17;;;744.03;;
53915;SDS011;39827;49.652;18.770;2023-06-26T06:10:37;806.25;;;744.97;;
53915;SDS011;39827;49.652;18.770;2023-06-26T06:13:03;824.85;;;761.45;;
53915;SDS011;39827;49.652;18.770;2023-06-26T06:15:28;811.80;;;749.65;;
53915;SDS011;39827;49.652;18.770;2023-06-26T06:17:53;790.25;;;731.10;;
53915;SDS011;39827;49.652;18.770;2023-06-26T06:20:19;821.83;;;759.03;;
53915;SDS011;39827;49.652;18.770;2023-06-26T06:22:45;824.47;;;760.85;;
53915;SDS011;39827;49.652;18.770;2023-06-26T06:25:10;835.58;;;770.63;;
53915;SDS011;39827;49.652;18.770;2023-06-26T06:27:35;807.25;;;745.30;;
53915;SDS011;39827;49.652;18.770;2023-06-26T06:30:01;366.90;;;342.45;;
53915;SDS011;39827;49.652;18.770;2023-06-26T06:32:27;368.95;;;344.10;;
53915;SDS011;39827;49.652;18.770;2023-06-26T06:34:53;355.25;;;332.05;;
53915;SDS011;39827;49.652;18.770;2023-06-26T06:37:18;335.17;;;313.60;;
53915;SDS011;39827;49.652;18.770;2023-06-26T06:39:44;344.83;;;322.48;;
53915;SDS011;39827;49.652;18.770;2023-06-26T06:42:09;317.65;;;297.33;;
53915;SDS011;39827;49.652;18.770;2023-06-26T06:44:34;325.17;;;304.65;;
53915;SDS011;39827;49.652;18.770;2023-06-26T06:47:00;337.90;;;316.42;;
53915;SDS011;39827;49.652;18.770;2023-06-26T06:49:25;324.52;;;304.45;;
53915;SDS011;39827;49.652;18.770;2023-06-26T06:51:51;295.65;;;277.63;;
53915;SDS011;39827;49.652;18.770;2023-06-26T06:54:16;278.50;;;261.20;;
53915;SDS011;39827;49.652;18.770;2023-06-26T06:56:42;253.43;;;237.68;;
53915;SDS011;39827;49.652;18.770;2023-06-26T06:59:08;255.40;;;240.38;;
53915;SDS011;39827;49.652;18.770;2023-06-26T07:01:33;246.55;;;231.75;;
53915;SDS011;39827;49.652;18.770;2023-06-26T07:03:59;234.55;;;220.63;;
53915;SDS011;39827;49.652;18.770;2023-06-26T07:06:24;241.00;;;226.73;;
53915;SDS011;39827;49.652;18.770;2023-06-26T07:08:49;236.05;;;222.00;;
53915;SDS011;39827;49.652;18.770;2023-06-26T07:11:15;253.00;;;237.98;;
53915;SDS011;39827;49.652;18.770;2023-06-26T07:13:41;260.67;;;245.57;;
53915;SDS011;39827;49.652;18.770;2023-06-26T07:16:06;250.40;;;235.63;;
53915;SDS011;39827;49.652;18.770;2023-06-26T07:18:32;267.10;;;251.63;;
53915;SDS011;39827;49.652;18.770;2023-06-26T07:20:58;279.85;;;263.63;;
53915;SDS011;39827;49.652;18.770;2023-06-26T07:23:23;283.33;;;266.77;;
53915;SDS011;39827;49.652;18.770;2023-06-26T07:25:48;248.73;;;234.32;;
53915;SDS011;39827;49.652;18.770;2023-06-26T07:28:14;299.55;;;281.63;;
53915;SDS011;39827;49.652;18.770;2023-06-26T07:30:39;253.93;;;239.07;;
53915;SDS011;39827;49.652;18.770;2023-06-26T07:33:05;253.68;;;238.65;;
53915;SDS011;39827;49.652;18.770;2023-06-26T07:35:30;237.95;;;224.02;;
53915;SDS011;39827;49.652;18.770;2023-06-26T07:37:56;239.45;;;224.70;;
53915;SDS011;39827;49.652;18.770;2023-06-26T07:40:21;234.15;;;220.65;;
53915;SDS011;39827;49.652;18.770;2023-06-26T07:42:47;227.30;;;214.25;;
53915;SDS011;39827;49.652;18.770;2023-06-26T07:45:12;219.80;;;206.93;;
53915;SDS011;39827;49.652;18.770;2023-06-26T07:47:38;233.85;;;220.25;;
53915;SDS011;39827;49.652;18.770;2023-06-26T07:50:04;219.70;;;206.77;;
53915;SDS011;39827;49.652;18.770;2023-06-26T07:52:30;136.23;;;128.00;;
53915;SDS011;39827;49.652;18.770;2023-06-26T07:54:56;176.50;;;165.98;;
53915;SDS011;39827;49.652;18.770;2023-06-26T07:57:21;172.73;;;162.15;;
53915;SDS011;39827;49.652;18.770;2023-06-26T07:59:47;183.63;;;172.27;;
53915;SDS011;39827;49.652;18.770;2023-06-26T08:02:12;121.30;;;114.03;;
53915;SDS011;39827;49.652;18.770;2023-06-26T08:04:38;86.60;;;80.90;;
53915;SDS011;39827;49.652;18.770;2023-06-26T08:07:03;107.50;;;100.80;;
53915;SDS011;39827;49.652;18.770;2023-06-26T08:09:29;26.15;;;24.02;;
53915;SDS011;39827;49.652;18.770;2023-06-26T08:11:55;19.58;;;17.88;;
53915;SDS011;39827;49.652;18.770;2023-06-26T08:14:21;29.92;;;27.05;;
53915;SDS011;39827;49.652;18.770;2023-06-26T08:16:47;46.53;;;43.25;;
53915;SDS011;39827;49.652;18.770;2023-06-26T08:19:13;19.27;;;17.88;;
53915;SDS011;39827;49.652;18.770;2023-06-26T08:21:42;59.03;;;54.95;;
53915;SDS011;39827;49.652;18.770;2023-06-26T08:24:09;88.57;;;83.28;;
53915;SDS011;39827;49.652;18.770;2023-06-26T08:26:35;115.47;;;108.82;;
53915;SDS011;39827;49.652;18.770;2023-06-26T08:29:01;140.63;;;132.50;;
53915;SDS011;39827;49.652;18.770;2023-06-26T08:31:32;135.65;;;127.50;;
53915;SDS011;39827;49.652;18.770;2023-06-26T08:33:59;155.55;;;146.55;;
53915;SDS011;39827;49.652;18.770;2023-06-26T08:36:25;136.52;;;128.20;;
53915;SDS011;39827;49.652;18.770;2023-06-26T08:38:50;130.27;;;122.40;;
53915;SDS011;39827;49.652;18.770;2023-06-26T08:41:16;61.33;;;57.58;;
53915;SDS011;39827;49.652;18.770;2023-06-26T08:43:41;39.92;;;37.22;;
53915;SDS011;39827;49.652;18.770;2023-06-26T08:46:07;19.52;;;18.10;;
53915;SDS011;39827;49.652;18.770;2023-06-26T08:48:32;14.80;;;13.52;;
53915;SDS011;39827;49.652;18.770;2023-06-26T08:51:13;10.68;;;9.73;;
53915;SDS011;39827;49.652;18.770;2023-06-26T08:54:15;18.63;;;17.20;;
53915;SDS011;39827;49.652;18.770;2023-06-26T08:56:37;14.70;;;13.65;;
53915;SDS011;39827;49.652;18.770;2023-06-26T08:59:06;12.20;;;11.10;;
53915;SDS011;39827;49.652;18.770;2023-06-26T09:01:35;11.48;;;10.57;;
53915;SDS011;39827;49.652;18.770;2023-06-26T09:04:00;13.88;;;12.85;;
53915;SDS011;39827;49.652;18.770;2023-06-26T09:06:27;16.42;;;11.90;;
53915;SDS011;39827;49.652;18.770;2023-06-26T09:08:52;14.25;;;13.10;;
53915;SDS011;39827;49.652;18.770;2023-06-26T09:11:18;11.25;;;10.25;;
53915;SDS011;39827;49.652;18.770;2023-06-26T09:13:43;11.63;;;10.68;;
53915;SDS011;39827;49.652;18.770;2023-06-26T09:16:09;11.95;;;10.88;;
53915;SDS011;39827;49.652;18.770;2023-06-26T09:18:35;13.25;;;12.25;;
53915;SDS011;39827;49.652;18.770;2023-06-26T09:21:05;10.23;;;9.38;;
53915;SDS011;39827;49.652;18.770;2023-06-26T09:23:32;15.18;;;14.05;;
53915;SDS011;39827;49.652;18.770;2023-06-26T09:25:58;15.73;;;14.35;;
53915;SDS011;39827;49.652;18.770;2023-06-26T09:28:24;14.13;;;13.05;;
53915;SDS011;39827;49.652;18.770;2023-06-26T09:30:49;30.83;;;28.52;;
53915;SDS011;39827;49.652;18.770;2023-06-26T09:33:16;15.75;;;14.45;;
53915;SDS011;39827;49.652;18.770;2023-06-26T09:35:46;30.45;;;28.27;;
53915;SDS011;39827;49.652;18.770;2023-06-26T09:38:12;84.90;;;79.97;;
53915;SDS011;39827;49.652;18.770;2023-06-26T09:40:39;12.63;;;11.45;;
53915;SDS011;39827;49.652;18.770;2023-06-26T09:43:05;12.43;;;11.32;;
53915;SDS011;39827;49.652;18.770;2023-06-26T09:45:34;11.40;;;9.30;;
53915;SDS011;39827;49.652;18.770;2023-06-26T09:48:03;36.22;;;33.72;;
53915;SDS011;39827;49.652;18.770;2023-06-26T09:50:30;83.60;;;78.82;;
53915;SDS011;39827;49.652;18.770;2023-06-26T09:52:59;21.58;;;19.98;;
53915;SDS011;39827;49.652;18.770;2023-06-26T09:55:34;123.97;;;116.47;;
53915;SDS011;39827;49.652;18.770;2023-06-26T09:58:00;58.72;;;55.00;;
53915;SDS011;39827;49.652;18.770;2023-06-26T10:00:27;10.60;;;9.60;;
53915;SDS011;39827;49.652;18.770;2023-06-26T10:02:53;124.63;;;117.55;;
53915;SDS011;39827;49.652;18.770;2023-06-26T10:05:18;93.22;;;87.53;;
53915;SDS011;39827;49.652;18.770;2023-06-26T10:07:44;99.05;;;93.18;;
53915;SDS011;39827;49.652;18.770;2023-06-26T10:10:11;135.65;;;127.93;;
53915;SDS011;39827;49.652;18.770;2023-06-26T10:12:37;66.88;;;62.47;;
53915;SDS011;39827;49.652;18.770;2023-06-26T10:15:02;169.40;;;159.52;;
53915;SDS011;39827;49.652;18.770;2023-06-26T10:17:32;81.38;;;76.47;;
53915;SDS011;39827;49.652;18.770;2023-06-26T10:20:01;86.28;;;81.35;;
53915;SDS011;39827;49.652;18.770;2023-06-26T10:22:29;57.03;;;53.63;;
53915;SDS011;39827;49.652;18.770;2023-06-26T10:24:59;113.68;;;107.25;;
53915;SDS011;39827;49.652;18.770;2023-06-26T10:27:27;274.08;;;258.83;;
53915;SDS011;39827;49.652;18.770;2023-06-26T10:29:56;165.23;;;155.68;;
53915;SDS011;39827;49.652;18.770;2023-06-26T10:32:26;271.98;;;257.02;;
53915;SDS011;39827;49.652;18.770;2023-06-26T10:34:53;218.38;;;206.50;;
53915;SDS011;39827;49.652;18.770;2023-06-26T10:37:20;98.32;;;92.68;;
53915;SDS011;39827;49.652;18.770;2023-06-26T10:42:14;191.95;;;181.23;;
53915;SDS011;39827;49.652;18.770;2023-06-26T10:44:41;204.98;;;193.73;;
53915;SDS011;39827;49.652;18.770;2023-06-26T10:47:08;403.85;;;381.05;;
53915;SDS011;39827;49.652;18.770;2023-06-26T10:49:35;481.17;;;452.83;;
53915;SDS011;39827;49.652;18.770;2023-06-26T10:52:02;474.30;;;446.38;;
53915;SDS011;39827;49.652;18.770;2023-06-26T10:54:28;310.80;;;293.40;;
53915;SDS011;39827;49.652;18.770;2023-06-26T10:56:55;194.38;;;183.13;;
53915;SDS011;39827;49.652;18.770;2023-06-26T10:59:24;149.50;;;141.05;;
53915;SDS011;39827;49.652;18.770;2023-06-26T11:01:57;142.13;;;134.20;;
53915;SDS011;39827;49.652;18.770;2023-06-26T11:04:38;192.60;;;181.85;;
53915;SDS011;39827;49.652;18.770;2023-06-26T11:07:14;176.75;;;166.63;;
53915;SDS011;39827;49.652;18.770;2023-06-26T11:09:53;144.93;;;136.65;;
53915;SDS011;39827;49.652;18.770;2023-06-26T11:12:39;146.82;;;138.30;;
53915;SDS011;39827;49.652;18.770;2023-06-26T11:17:35;177.13;;;167.25;;
53915;SDS011;39827;49.652;18.770;2023-06-26T11:20:02;240.98;;;227.52;;
53915;SDS011;39827;49.652;18.770;2023-06-26T11:22:31;325.23;;;306.77;;
53915;SDS011;39827;49.652;18.770;2023-06-26T11:25:00;314.83;;;297.10;;
53915;SDS011;39827;49.652;18.770;2023-06-26T11:27:37;402.13;;;378.88;;
53915;SDS011;39827;49.652;18.770;2023-06-26T11:30:07;436.80;;;411.30;;
53915;SDS011;39827;49.652;18.770;2023-06-26T11:32:47;333.92;;;314.83;;
53915;SDS011;39827;49.652;18.770;2023-06-26T11:35:12;178.07;;;167.68;;
53915;SDS011;39827;49.652;18.770;2023-06-26T11:37:38;162.77;;;153.55;;
53915;SDS011;39827;49.652;18.770;2023-06-26T11:40:15;156.02;;;147.23;;
53915;SDS011;39827;49.652;18.770;2023-06-26T11:42:41;190.88;;;180.13;;
53915;SDS011;39827;49.652;18.770;2023-06-26T11:45:08;166.40;;;157.13;;
53915;SDS011;39827;49.652;18.770;2023-06-26T11:47:34;278.35;;;262.40;;
53915;SDS011;39827;49.652;18.770;2023-06-26T11:49:59;233.43;;;220.13;;
53915;SDS011;39827;49.652;18.770;2023-06-26T11:52:29;212.93;;;201.02;;
53915;SDS011;39827;49.652;18.770;2023-06-26T11:54:57;170.70;;;161.13;;
53915;SDS011;39827;49.652;18.770;2023-06-26T11:57:22;115.57;;;108.93;;
53915;SDS011;39827;49.652;18.770;2023-06-26T11:59:49;107.13;;;101.05;;
53915;SDS011;39827;49.652;18.770;2023-06-26T12:02:15;18.88;;;17.52;;
53915;SDS011;39827;49.652;18.770;2023-06-26T12:04:41;80.03;;;75.13;;
53915;SDS011;39827;49.652;18.770;2023-06-26T12:07:08;146.80;;;138.38;;
53915;SDS011;39827;49.652;18.770;2023-06-26T12:09:38;129.30;;;121.85;;
53915;SDS011;39827;49.652;18.770;2023-06-26T12:12:11;62.03;;;58.25;;
53915;SDS011;39827;49.652;18.770;2023-06-26T12:14:39;123.63;;;116.43;;
53915;SDS011;39827;49.652;18.770;2023-06-26T12:17:09;85.53;;;80.40;;
53915;SDS011;39827;49.652;18.770;2023-06-26T12:19:39;13.15;;;12.13;;
53915;SDS011;39827;49.652;18.770;2023-06-26T12:22:09;19.13;;;17.45;;
53915;SDS011;39827;49.652;18.770;2023-06-26T12:24:36;12.85;;;11.85;;
53915;SDS011;39827;49.652;18.770;2023-06-26T12:27:07;49.28;;;46.08;;
53915;SDS011;39827;49.652;18.770;2023-06-26T12:29:34;99.90;;;94.03;;
53915;SDS011;39827;49.652;18.770;2023-06-26T12:32:00;17.33;;;15.95;;
53915;SDS011;39827;49.652;18.770;2023-06-26T12:34:36;42.70;;;39.47;;
53915;SDS011;39827;49.652;18.770;2023-06-26T12:39:46;92.00;;;86.55;;
53915;SDS011;39827;49.652;18.770;2023-06-26T12:42:13;136.55;;;128.57;;
53915;SDS011;39827;49.652;18.770;2023-06-26T12:44:40;74.95;;;70.43;;
53915;SDS011;39827;49.652;18.770;2023-06-26T12:47:06;89.00;;;83.70;;
53915;SDS011;39827;49.652;18.770;2023-06-26T12:52:03;34.92;;;32.42;;
53915;SDS011;39827;49.652;18.770;2023-06-26T12:54:33;13.85;;;12.52;;
53915;SDS011;39827;49.652;18.770;2023-06-26T12:56:59;33.13;;;30.65;;
53915;SDS011;39827;49.652;18.770;2023-06-26T12:59:24;43.20;;;40.40;;
53915;SDS011;39827;49.652;18.770;2023-06-26T13:01:50;46.30;;;43.38;;
53915;SDS011;39827;49.652;18.770;2023-06-26T13:04:15;21.80;;;20.13;;
53915;SDS011;39827;49.652;18.770;2023-06-26T13:06:41;12.65;;;11.68;;
53915;SDS011;39827;49.652;18.770;2023-06-26T13:09:06;12.85;;;11.85;;
53915;SDS011;39827;49.652;18.770;2023-06-26T13:11:32;25.67;;;23.58;;
53915;SDS011;39827;49.652;18.770;2023-06-26T13:14:00;11.60;;;10.70;;
53915;SDS011;39827;49.652;18.770;2023-06-26T13:16:26;13.90;;;12.70;;
53915;SDS011;39827;49.652;18.770;2023-06-26T13:18:51;18.00;;;16.67;;
53915;SDS011;39827;49.652;18.770;2023-06-26T13:21:17;16.27;;;14.75;;
53915;SDS011;39827;49.652;18.770;2023-06-26T13:23:43;14.57;;;13.40;;
53915;SDS011;39827;49.652;18.770;2023-06-26T13:26:09;14.73;;;13.48;;
53915;SDS011;39827;49.652;18.770;2023-06-26T13:28:35;14.90;;;13.60;;
53915;SDS011;39827;49.652;18.770;2023-06-26T13:31:01;16.05;;;14.70;;
53915;SDS011;39827;49.652;18.770;2023-06-26T13:33:27;18.50;;;17.10;;
53915;SDS011;39827;49.652;18.770;2023-06-26T13:35:53;13.77;;;12.40;;
53915;SDS011;39827;49.652;18.770;2023-06-26T13:38:22;15.55;;;13.50;;
53915;SDS011;39827;49.652;18.770;2023-06-26T13:40:52;14.93;;;13.02;;
53915;SDS011;39827;49.652;18.770;2023-06-26T13:43:22;16.38;;;13.73;;
53915;SDS011;39827;49.652;18.770;2023-06-26T13:45:48;16.73;;;15.23;;
53915;SDS011;39827;49.652;18.770;2023-06-26T13:48:14;12.93;;;11.32;;
53915;SDS011;39827;49.652;18.770;2023-06-26T13:50:40;15.10;;;13.68;;
53915;SDS011;39827;49.652;18.770;2023-06-26T13:53:05;13.02;;;11.93;;
53915;SDS011;39827;49.652;18.770;2023-06-26T13:55:31;12.20;;;11.15;;
53915;SDS011;39827;49.652;18.770;2023-06-26T13:57:56;53.22;;;49.92;;
53915;SDS011;39827;49.652;18.770;2023-06-26T14:00:22;16.88;;;12.73;;
53915;SDS011;39827;49.652;18.770;2023-06-26T14:02:47;13.10;;;12.00;;
53915;SDS011;39827;49.652;18.770;2023-06-26T14:05:13;13.25;;;12.18;;